PBD468 UWSG-UUWW
Flight info
| Callsign | PBD468 |
|---|---|
| Flight time | 1h 13m |
| Altitude | 36000 |
| Route | SOKUR1K SOKUR T661 GEKPA L736 OLOPI OLOPI3B |
| Aircraft | B738/M-SDE2E3FGHIRWXY/LB1 |
Departure
| Time | 2026-04-24 18:55 |
|---|---|
| Airport | Gagarin International Airport (UWSG) |
Arrival
| Time | 2026-04-24 20:09 |
|---|---|
| Airport | Vnukovo International Airport (UUWW) |
| Time | Latitude | Longitude | Altitude | Speed | Heading |
|---|---|---|---|---|---|
| 2026-04-24 18:54 | 51.71218 | 46.19132 | 109 ft | 18 kts | 272° |
| 2026-04-24 18:55 | 51.71263 | 46.17196 | 108 ft | 146 kts | 272° |
| 2026-04-24 18:55 | 51.71320 | 46.15319 | 352 ft | 177 kts | 270° |
| 2026-04-24 18:55 | 51.71356 | 46.13302 | 1175 ft | 180 kts | 267° |
| 2026-04-24 18:56 | 51.71392 | 46.11330 | 2170 ft | 171 kts | 267° |
| 2026-04-24 18:56 | 51.71434 | 46.09441 | 3087 ft | 166 kts | 268° |
| 2026-04-24 18:56 | 51.71467 | 46.07587 | 3761 ft | 175 kts | 268° |
| 2026-04-24 18:56 | 51.71501 | 46.05471 | 3970 ft | 200 kts | 269° |
| 2026-04-24 18:57 | 51.71579 | 46.03078 | 4223 ft | 227 kts | 279° |
| 2026-04-24 18:57 | 51.72248 | 46.00674 | 4857 ft | 242 kts | 301° |
| 2026-04-24 18:57 | 51.73481 | 45.98745 | 5634 ft | 255 kts | 320° |
| 2026-04-24 18:57 | 51.75028 | 45.97278 | 6390 ft | 261 kts | 326° |
| 2026-04-24 18:58 | 51.76651 | 45.95926 | 7145 ft | 264 kts | 327° |
| 2026-04-24 18:58 | 51.78301 | 45.94573 | 7887 ft | 266 kts | 327° |
| 2026-04-24 18:58 | 51.79955 | 45.93208 | 8634 ft | 268 kts | 327° |
| 2026-04-24 18:58 | 51.81620 | 45.91818 | 9357 ft | 271 kts | 327° |
| 2026-04-24 18:59 | 51.83296 | 45.90404 | 9999 ft | 273 kts | 327° |
| 2026-04-24 18:59 | 51.84990 | 45.88967 | 10630 ft | 276 kts | 328° |
| 2026-04-24 18:59 | 51.86675 | 45.87532 | 11233 ft | 279 kts | 328° |
| 2026-04-24 18:59 | 51.88400 | 45.86058 | 11821 ft | 282 kts | 328° |
| 2026-04-24 19:00 | 51.89578 | 45.85049 | 12226 ft | 284 kts | 328° |
| 2026-04-24 19:00 | 51.91905 | 45.83054 | 13015 ft | 287 kts | 328° |
| 2026-04-24 19:00 | 51.93680 | 45.81529 | 13531 ft | 291 kts | 329° |
| 2026-04-24 19:00 | 51.95477 | 45.79984 | 14044 ft | 293 kts | 329° |
| 2026-04-24 19:01 | 51.97239 | 45.78320 | 14544 ft | 293 kts | 317° |
| 2026-04-24 19:01 | 51.98552 | 45.75813 | 14845 ft | 297 kts | 296° |
| 2026-04-24 19:01 | 51.99353 | 45.72650 | 14970 ft | 310 kts | 288° |
| 2026-04-24 19:01 | 52.00071 | 45.69274 | 15078 ft | 324 kts | 288° |
| 2026-04-24 19:02 | 52.00554 | 45.66946 | 15151 ft | 333 kts | 288° |
| 2026-04-24 19:02 | 52.01565 | 45.62099 | 15285 ft | 350 kts | 288° |
| 2026-04-24 19:02 | 52.02366 | 45.58304 | 15374 ft | 361 kts | 288° |
| 2026-04-24 19:02 | 52.03194 | 45.54410 | 15610 ft | 367 kts | 288° |
| 2026-04-24 19:03 | 52.04037 | 45.50467 | 15984 ft | 369 kts | 288° |
| 2026-04-24 19:03 | 52.04882 | 45.46524 | 16388 ft | 371 kts | 288° |
| 2026-04-24 19:03 | 52.05730 | 45.42559 | 16762 ft | 372 kts | 288° |
| 2026-04-24 19:03 | 52.06582 | 45.38576 | 17126 ft | 374 kts | 288° |
| 2026-04-24 19:04 | 52.07438 | 45.34556 | 17451 ft | 376 kts | 288° |
| 2026-04-24 19:04 | 52.08295 | 45.30524 | 17773 ft | 378 kts | 288° |
| 2026-04-24 19:04 | 52.09154 | 45.26466 | 18065 ft | 380 kts | 288° |
| 2026-04-24 19:04 | 52.10002 | 45.22454 | 18362 ft | 381 kts | 288° |
| 2026-04-24 19:05 | 52.10863 | 45.18365 | 18619 ft | 383 kts | 288° |
| 2026-04-24 19:05 | 52.11727 | 45.14264 | 18884 ft | 384 kts | 288° |
| 2026-04-24 19:05 | 52.12592 | 45.10144 | 19158 ft | 385 kts | 288° |
| 2026-04-24 19:05 | 52.13457 | 45.06017 | 19373 ft | 379 kts | 288° |
| 2026-04-24 19:06 | 52.14288 | 45.02051 | 19363 ft | 362 kts | 288° |
| 2026-04-24 19:06 | 52.15080 | 44.98257 | 19376 ft | 346 kts | 288° |
| 2026-04-24 19:06 | 52.15835 | 44.94638 | 19391 ft | 331 kts | 288° |
| 2026-04-24 19:06 | 52.16558 | 44.91161 | 19387 ft | 317 kts | 288° |
| 2026-04-24 19:07 | 52.17252 | 44.87826 | 19388 ft | 303 kts | 288° |
| 2026-04-24 19:07 | 52.17913 | 44.84638 | 19389 ft | 290 kts | 288° |
| 2026-04-24 19:07 | 52.18335 | 44.82601 | 19392 ft | 282 kts | 288° |
| 2026-04-24 19:07 | 52.19141 | 44.78717 | 19394 ft | 265 kts | 289° |
| 2026-04-24 19:08 | 52.19937 | 44.76097 | 19390 ft | 252 kts | 301° |
| 2026-04-24 19:08 | 52.20969 | 44.73876 | 19373 ft | 239 kts | 309° |
| 2026-04-24 19:08 | 52.22064 | 44.71938 | 19356 ft | 225 kts | 311° |
| 2026-04-24 19:08 | 52.23127 | 44.70120 | 19124 ft | 219 kts | 311° |
| 2026-04-24 19:09 | 52.24183 | 44.68317 | 18763 ft | 219 kts | 311° |
| 2026-04-24 19:09 | 52.25233 | 44.66519 | 18407 ft | 219 kts | 311° |
| 2026-04-24 19:09 | 52.26282 | 44.64715 | 18061 ft | 218 kts | 311° |
| 2026-04-24 19:09 | 52.27307 | 44.62948 | 17738 ft | 216 kts | 311° |
| 2026-04-24 19:10 | 52.28383 | 44.61084 | 17389 ft | 242 kts | 311° |
| 2026-04-24 19:10 | 52.29626 | 44.58920 | 17292 ft | 277 kts | 311° |
| 2026-04-24 19:10 | 52.31006 | 44.56518 | 17545 ft | 301 kts | 311° |
| 2026-04-24 19:10 | 52.32495 | 44.53926 | 17762 ft | 322 kts | 311° |
| 2026-04-24 19:11 | 52.34071 | 44.51178 | 17889 ft | 341 kts | 311° |
| 2026-04-24 19:11 | 52.35736 | 44.48273 | 18011 ft | 359 kts | 311° |
| 2026-04-24 19:11 | 52.37485 | 44.45218 | 18166 ft | 375 kts | 311° |
| 2026-04-24 19:11 | 52.39286 | 44.42066 | 18485 ft | 384 kts | 312° |
| 2026-04-24 19:12 | 52.40503 | 44.39936 | 18749 ft | 389 kts | 312° |
| 2026-04-24 19:12 | 52.42358 | 44.36682 | 19325 ft | 390 kts | 312° |
| 2026-04-24 19:12 | 52.44213 | 44.33424 | 19843 ft | 394 kts | 312° |
| 2026-04-24 19:12 | 52.46715 | 44.29021 | 20483 ft | 399 kts | 312° |
| 2026-04-24 19:13 | 52.47357 | 44.27891 | 20661 ft | 400 kts | 312° |
| 2026-04-24 19:13 | 52.49916 | 44.23376 | 21286 ft | 406 kts | 313° |
| 2026-04-24 19:13 | 52.51846 | 44.19964 | 21757 ft | 409 kts | 313° |
| 2026-04-24 19:13 | 52.53791 | 44.16523 | 22245 ft | 412 kts | 313° |
| 2026-04-24 19:14 | 52.55720 | 44.13104 | 22672 ft | 416 kts | 313° |
| 2026-04-24 19:14 | 52.57694 | 44.09599 | 23131 ft | 418 kts | 313° |
| 2026-04-24 19:14 | 52.59679 | 44.06071 | 23478 ft | 422 kts | 313° |
| 2026-04-24 19:14 | 52.61680 | 44.02509 | 23856 ft | 424 kts | 313° |
| 2026-04-24 19:15 | 52.63691 | 43.98923 | 24181 ft | 428 kts | 313° |
| 2026-04-24 19:15 | 52.65717 | 43.95306 | 24551 ft | 430 kts | 313° |
| 2026-04-24 19:15 | 52.67745 | 43.91680 | 24891 ft | 432 kts | 313° |
| 2026-04-24 19:15 | 52.69790 | 43.88021 | 25244 ft | 435 kts | 313° |
| 2026-04-24 19:16 | 52.73857 | 43.80625 | 25845 ft | 441 kts | 312° |
| 2026-04-24 19:16 | 52.75909 | 43.76842 | 26174 ft | 443 kts | 312° |
| 2026-04-24 19:16 | 52.77966 | 43.73043 | 26496 ft | 445 kts | 312° |
| 2026-04-24 19:17 | 52.80037 | 43.69213 | 26789 ft | 448 kts | 312° |
| 2026-04-24 19:17 | 52.82124 | 43.65354 | 27050 ft | 451 kts | 312° |
| 2026-04-24 19:17 | 52.84227 | 43.61460 | 27319 ft | 454 kts | 312° |
| 2026-04-24 19:17 | 52.86336 | 43.57553 | 27606 ft | 456 kts | 312° |
| 2026-04-24 19:18 | 52.88451 | 43.53629 | 28020 ft | 455 kts | 312° |
| 2026-04-24 19:18 | 52.90554 | 43.49722 | 28435 ft | 455 kts | 312° |
| 2026-04-24 19:18 | 52.92659 | 43.45806 | 28850 ft | 454 kts | 312° |
| 2026-04-24 19:18 | 52.94764 | 43.41883 | 29228 ft | 454 kts | 312° |
| 2026-04-24 19:19 | 52.96860 | 43.37970 | 29599 ft | 454 kts | 312° |
| 2026-04-24 19:19 | 52.98936 | 43.34089 | 29883 ft | 454 kts | 312° |
| 2026-04-24 19:19 | 53.01034 | 43.30160 | 30163 ft | 455 kts | 312° |
| 2026-04-24 19:19 | 53.03135 | 43.26219 | 30445 ft | 455 kts | 312° |
| 2026-04-24 19:20 | 53.05232 | 43.22279 | 30739 ft | 455 kts | 312° |
| 2026-04-24 19:20 | 53.07329 | 43.18332 | 31029 ft | 455 kts | 312° |
| 2026-04-24 19:20 | 53.09426 | 43.14381 | 31316 ft | 454 kts | 312° |
| 2026-04-24 19:20 | 53.11519 | 43.10430 | 31603 ft | 455 kts | 312° |
| 2026-04-24 19:21 | 53.13580 | 43.06534 | 31853 ft | 455 kts | 312° |
| 2026-04-24 19:21 | 53.15698 | 43.02609 | 32107 ft | 455 kts | 313° |
| 2026-04-24 19:21 | 53.17847 | 42.98723 | 32368 ft | 455 kts | 313° |
| 2026-04-24 19:21 | 53.20005 | 42.94851 | 32655 ft | 455 kts | 314° |
| 2026-04-24 19:22 | 53.21435 | 42.92286 | 32855 ft | 454 kts | 313° |
| 2026-04-24 19:22 | 53.24310 | 42.87106 | 33195 ft | 455 kts | 313° |
| 2026-04-24 19:22 | 53.26460 | 42.83212 | 33397 ft | 456 kts | 313° |
| 2026-04-24 19:22 | 53.28613 | 42.79295 | 33604 ft | 457 kts | 313° |
| 2026-04-24 19:23 | 53.30758 | 42.75385 | 33842 ft | 456 kts | 313° |
| 2026-04-24 19:23 | 53.32870 | 42.71525 | 34083 ft | 454 kts | 313° |
| 2026-04-24 19:23 | 53.34999 | 42.67628 | 34313 ft | 454 kts | 313° |
| 2026-04-24 19:23 | 53.37126 | 42.63730 | 34537 ft | 453 kts | 313° |
| 2026-04-24 19:24 | 53.39250 | 42.59835 | 34801 ft | 451 kts | 313° |
| 2026-04-24 19:24 | 53.41367 | 42.55945 | 34996 ft | 451 kts | 313° |
| 2026-04-24 19:24 | 53.43445 | 42.51997 | 35142 ft | 453 kts | 308° |
| 2026-04-24 19:24 | 53.45196 | 42.47586 | 35305 ft | 454 kts | 300° |
| 2026-04-24 19:25 | 53.46572 | 42.42819 | 35447 ft | 454 kts | 291° |
| 2026-04-24 19:25 | 53.47537 | 42.37792 | 35494 ft | 452 kts | 288° |
| 2026-04-24 19:25 | 53.49259 | 42.27667 | 35519 ft | 450 kts | 287° |
| 2026-04-24 19:26 | 53.50975 | 42.17519 | 35541 ft | 454 kts | 288° |
| 2026-04-24 19:26 | 53.52740 | 42.07279 | 35549 ft | 458 kts | 288° |
| 2026-04-24 19:27 | 53.54518 | 41.97011 | 35547 ft | 462 kts | 288° |
| 2026-04-24 19:27 | 53.56315 | 41.86589 | 35547 ft | 464 kts | 288° |
| 2026-04-24 19:28 | 53.58100 | 41.76162 | 35539 ft | 462 kts | 288° |
| 2026-04-24 19:28 | 53.59856 | 41.65836 | 35540 ft | 455 kts | 288° |
| 2026-04-24 19:29 | 53.62439 | 41.50538 | 35552 ft | 450 kts | 288° |
| 2026-04-24 19:30 | 53.64132 | 41.40451 | 35561 ft | 450 kts | 288° |
| 2026-04-24 19:30 | 53.65836 | 41.30237 | 35570 ft | 456 kts | 288° |
| 2026-04-24 19:31 | 53.67550 | 41.19890 | 35572 ft | 460 kts | 288° |
| 2026-04-24 19:31 | 53.69267 | 41.09471 | 35574 ft | 462 kts | 288° |
| 2026-04-24 19:32 | 53.71148 | 40.99100 | 35566 ft | 460 kts | 294° |
| 2026-04-24 19:32 | 53.73716 | 40.89215 | 35575 ft | 459 kts | 296° |
| 2026-04-24 19:33 | 53.76340 | 40.79401 | 35579 ft | 457 kts | 296° |
| 2026-04-24 19:33 | 53.78877 | 40.69649 | 35582 ft | 455 kts | 296° |
| 2026-04-24 19:34 | 53.81389 | 40.59826 | 35582 ft | 453 kts | 296° |
| 2026-04-24 19:34 | 53.83878 | 40.50043 | 35585 ft | 451 kts | 296° |
| 2026-04-24 19:35 | 53.86348 | 40.40310 | 35599 ft | 449 kts | 296° |
| 2026-04-24 19:35 | 53.88804 | 40.30597 | 35603 ft | 448 kts | 296° |
| 2026-04-24 19:36 | 53.91255 | 40.20892 | 35524 ft | 450 kts | 296° |
| 2026-04-24 19:36 | 53.92495 | 40.15976 | 35261 ft | 455 kts | 296° |
| 2026-04-24 19:36 | 53.93737 | 40.11036 | 35036 ft | 454 kts | 296° |
| 2026-04-24 19:36 | 53.94950 | 40.06196 | 34799 ft | 450 kts | 296° |
| 2026-04-24 19:37 | 53.96168 | 40.01321 | 34573 ft | 448 kts | 296° |
| 2026-04-24 19:37 | 53.97384 | 39.96446 | 34349 ft | 448 kts | 296° |
| 2026-04-24 19:37 | 53.98597 | 39.91579 | 34124 ft | 447 kts | 296° |
| 2026-04-24 19:37 | 53.99807 | 39.86708 | 33902 ft | 447 kts | 296° |
| 2026-04-24 19:38 | 54.01013 | 39.81842 | 33678 ft | 446 kts | 296° |
| 2026-04-24 19:38 | 54.02210 | 39.77001 | 33392 ft | 443 kts | 296° |
| 2026-04-24 19:38 | 54.03402 | 39.72173 | 32742 ft | 443 kts | 297° |
| 2026-04-24 19:38 | 54.04593 | 39.67338 | 32141 ft | 441 kts | 297° |
| 2026-04-24 19:39 | 54.05773 | 39.62533 | 31650 ft | 438 kts | 297° |
| 2026-04-24 19:39 | 54.06939 | 39.57775 | 31142 ft | 434 kts | 297° |
| 2026-04-24 19:39 | 54.08096 | 39.53043 | 30679 ft | 430 kts | 297° |
| 2026-04-24 19:39 | 54.09241 | 39.48352 | 30215 ft | 426 kts | 297° |
| 2026-04-24 19:40 | 54.10358 | 39.43764 | 29760 ft | 423 kts | 297° |
| 2026-04-24 19:40 | 54.11480 | 39.39152 | 29215 ft | 419 kts | 297° |
| 2026-04-24 19:40 | 54.12590 | 39.34578 | 28720 ft | 413 kts | 297° |
| 2026-04-24 19:40 | 54.13680 | 39.30072 | 28239 ft | 408 kts | 297° |
| 2026-04-24 19:41 | 54.14754 | 39.25629 | 27773 ft | 403 kts | 296° |
| 2026-04-24 19:41 | 54.15813 | 39.21238 | 27317 ft | 398 kts | 296° |
| 2026-04-24 19:41 | 54.16862 | 39.16884 | 26867 ft | 394 kts | 296° |
| 2026-04-24 19:41 | 54.17896 | 39.12579 | 26396 ft | 390 kts | 296° |
| 2026-04-24 19:42 | 54.18920 | 39.08312 | 25947 ft | 387 kts | 296° |
| 2026-04-24 19:42 | 54.19934 | 39.04074 | 25488 ft | 384 kts | 295° |
| 2026-04-24 19:42 | 54.20943 | 38.99856 | 25041 ft | 381 kts | 295° |
| 2026-04-24 19:42 | 54.21921 | 38.95750 | 24826 ft | 372 kts | 295° |
| 2026-04-24 19:43 | 54.22914 | 38.91669 | 24656 ft | 361 kts | 300° |
| 2026-04-24 19:43 | 54.24311 | 38.88221 | 24371 ft | 350 kts | 317° |
| 2026-04-24 19:43 | 54.26080 | 38.85408 | 24067 ft | 347 kts | 320° |
| 2026-04-24 19:43 | 54.27913 | 38.82662 | 23737 ft | 354 kts | 321° |
| 2026-04-24 19:44 | 54.29790 | 38.79888 | 23397 ft | 359 kts | 321° |
| 2026-04-24 19:44 | 54.31681 | 38.77085 | 23002 ft | 359 kts | 320° |
| 2026-04-24 19:44 | 54.33554 | 38.74287 | 22588 ft | 356 kts | 320° |
| 2026-04-24 19:44 | 54.35411 | 38.71494 | 22234 ft | 353 kts | 320° |
| 2026-04-24 19:45 | 54.37220 | 38.68760 | 21882 ft | 350 kts | 320° |
| 2026-04-24 19:45 | 54.39038 | 38.66001 | 21544 ft | 347 kts | 320° |
| 2026-04-24 19:45 | 54.40843 | 38.63255 | 21204 ft | 345 kts | 319° |
| 2026-04-24 19:45 | 54.42635 | 38.60524 | 20855 ft | 344 kts | 319° |
| 2026-04-24 19:46 | 54.44422 | 38.57795 | 20521 ft | 342 kts | 319° |
| 2026-04-24 19:46 | 54.46199 | 38.55078 | 20173 ft | 341 kts | 319° |
| 2026-04-24 19:46 | 54.47971 | 38.52364 | 19837 ft | 341 kts | 319° |
| 2026-04-24 19:46 | 54.49741 | 38.49650 | 19502 ft | 340 kts | 319° |
| 2026-04-24 19:47 | 54.51503 | 38.46945 | 19173 ft | 340 kts | 319° |
| 2026-04-24 19:47 | 54.53270 | 38.44229 | 18841 ft | 340 kts | 318° |
| 2026-04-24 19:47 | 54.55032 | 38.41518 | 18509 ft | 340 kts | 318° |
| 2026-04-24 19:47 | 54.56773 | 38.38833 | 18180 ft | 340 kts | 318° |
| 2026-04-24 19:48 | 54.58535 | 38.36116 | 17842 ft | 339 kts | 318° |
| 2026-04-24 19:48 | 54.60291 | 38.33403 | 17463 ft | 339 kts | 318° |
| 2026-04-24 19:48 | 54.63784 | 38.27997 | 16788 ft | 334 kts | 318° |
| 2026-04-24 19:49 | 54.67207 | 38.22687 | 16133 ft | 326 kts | 318° |
| 2026-04-24 19:49 | 54.70517 | 38.17539 | 15494 ft | 318 kts | 318° |
| 2026-04-24 19:50 | 54.75395 | 38.09934 | 14565 ft | 311 kts | 318° |
| 2026-04-24 19:50 | 54.76995 | 38.07433 | 14262 ft | 309 kts | 318° |
| 2026-04-24 19:51 | 54.80174 | 38.02457 | 13658 ft | 306 kts | 318° |
| 2026-04-24 19:51 | 54.81748 | 37.99989 | 13362 ft | 305 kts | 318° |
| 2026-04-24 19:52 | 54.84886 | 37.95060 | 12705 ft | 303 kts | 318° |
| 2026-04-24 19:52 | 54.86420 | 37.92648 | 12420 ft | 300 kts | 318° |
| 2026-04-24 19:52 | 54.87966 | 37.90212 | 12115 ft | 299 kts | 319° |
| 2026-04-24 19:52 | 54.89502 | 37.87790 | 11817 ft | 297 kts | 319° |
| 2026-04-24 19:53 | 54.91034 | 37.85374 | 11523 ft | 296 kts | 319° |
| 2026-04-24 19:53 | 54.92554 | 37.82972 | 11234 ft | 294 kts | 319° |
| 2026-04-24 19:53 | 54.95555 | 37.78223 | 10658 ft | 292 kts | 319° |
| 2026-04-24 19:54 | 54.97045 | 37.75861 | 10395 ft | 287 kts | 319° |
| 2026-04-24 19:54 | 54.98549 | 37.73622 | 10107 ft | 283 kts | 325° |
| 2026-04-24 19:54 | 55.00187 | 37.71729 | 9884 ft | 282 kts | 328° |
| 2026-04-24 19:54 | 55.01833 | 37.69970 | 9603 ft | 273 kts | 329° |
| 2026-04-24 19:55 | 55.02381 | 37.69390 | 9523 ft | 272 kts | 329° |
| 2026-04-24 19:55 | 55.05073 | 37.66520 | 9069 ft | 270 kts | 329° |
| 2026-04-24 19:55 | 55.06632 | 37.64836 | 8790 ft | 263 kts | 329° |
| 2026-04-24 19:55 | 55.08153 | 37.63177 | 8493 ft | 253 kts | 329° |
| 2026-04-24 19:56 | 55.09627 | 37.61561 | 8220 ft | 247 kts | 329° |
| 2026-04-24 19:56 | 55.11076 | 37.59965 | 7956 ft | 245 kts | 329° |
| 2026-04-24 19:56 | 55.12513 | 37.58379 | 7688 ft | 243 kts | 329° |
| 2026-04-24 19:56 | 55.13937 | 37.56803 | 7422 ft | 241 kts | 329° |
| 2026-04-24 19:57 | 55.15349 | 37.55237 | 7158 ft | 239 kts | 329° |
| 2026-04-24 19:57 | 55.16749 | 37.53683 | 6903 ft | 237 kts | 329° |
| 2026-04-24 19:57 | 55.18138 | 37.52139 | 6640 ft | 236 kts | 329° |
| 2026-04-24 19:57 | 55.19500 | 37.50623 | 6386 ft | 234 kts | 329° |
| 2026-04-24 19:58 | 55.20871 | 37.49096 | 6136 ft | 233 kts | 329° |
| 2026-04-24 19:58 | 55.22242 | 37.47567 | 6035 ft | 235 kts | 329° |
| 2026-04-24 19:58 | 55.23633 | 37.46015 | 5998 ft | 238 kts | 329° |
| 2026-04-24 19:58 | 55.25023 | 37.44463 | 5993 ft | 235 kts | 329° |
| 2026-04-24 19:59 | 55.26402 | 37.42922 | 5979 ft | 235 kts | 329° |
| 2026-04-24 19:59 | 55.27784 | 37.41375 | 6000 ft | 235 kts | 329° |
| 2026-04-24 19:59 | 55.29156 | 37.39838 | 5975 ft | 232 kts | 329° |
| 2026-04-24 19:59 | 55.30496 | 37.38346 | 5976 ft | 224 kts | 332° |
| 2026-04-24 20:00 | 55.31444 | 37.37712 | 5941 ft | 217 kts | 350° |
| 2026-04-24 20:00 | 55.33390 | 37.37800 | 5868 ft | 211 kts | 9° |
| 2026-04-24 20:00 | 55.34811 | 37.38443 | 5816 ft | 211 kts | 12° |
| 2026-04-24 20:00 | 55.35753 | 37.38911 | 5770 ft | 213 kts | 13° |
| 2026-04-24 20:01 | 55.37191 | 37.39627 | 5684 ft | 217 kts | 12° |
| 2026-04-24 20:01 | 55.38654 | 37.40351 | 5620 ft | 218 kts | 12° |
| 2026-04-24 20:01 | 55.40114 | 37.41067 | 5544 ft | 218 kts | 12° |
| 2026-04-24 20:01 | 55.41578 | 37.41779 | 5460 ft | 218 kts | 12° |
| 2026-04-24 20:02 | 55.43042 | 37.42489 | 5379 ft | 218 kts | 12° |
| 2026-04-24 20:02 | 55.44509 | 37.43196 | 5312 ft | 218 kts | 12° |
| 2026-04-24 20:02 | 55.45976 | 37.43901 | 5226 ft | 219 kts | 12° |
| 2026-04-24 20:02 | 55.47424 | 37.44597 | 5162 ft | 219 kts | 12° |
| 2026-04-24 20:03 | 55.48874 | 37.45296 | 5096 ft | 206 kts | 12° |
| 2026-04-24 20:03 | 55.50222 | 37.45947 | 5003 ft | 196 kts | 11° |
| 2026-04-24 20:03 | 55.51532 | 37.46577 | 4789 ft | 197 kts | 11° |
| 2026-04-24 20:03 | 55.52853 | 37.47215 | 4556 ft | 195 kts | 11° |
| 2026-04-24 20:04 | 55.54147 | 37.47843 | 4320 ft | 190 kts | 11° |
| 2026-04-24 20:04 | 55.55404 | 37.48453 | 4081 ft | 185 kts | 11° |
| 2026-04-24 20:04 | 55.56629 | 37.49047 | 3892 ft | 180 kts | 11° |
| 2026-04-24 20:04 | 55.57817 | 37.49624 | 3682 ft | 174 kts | 11° |
| 2026-04-24 20:05 | 55.58981 | 37.50108 | 3469 ft | 169 kts | 358° |
| 2026-04-24 20:05 | 55.60066 | 37.49584 | 3305 ft | 163 kts | 336° |
| 2026-04-24 20:05 | 55.61117 | 37.48852 | 3073 ft | 159 kts | 338° |
| 2026-04-24 20:05 | 55.62113 | 37.48177 | 2896 ft | 149 kts | 338° |
| 2026-04-24 20:06 | 55.63048 | 37.47441 | 2685 ft | 148 kts | 315° |
| 2026-04-24 20:06 | 55.63389 | 37.45762 | 2622 ft | 148 kts | 276° |
| 2026-04-24 20:06 | 55.63109 | 37.44018 | 2455 ft | 151 kts | 253° |
| 2026-04-24 20:06 | 55.62758 | 37.42248 | 2346 ft | 152 kts | 257° |
| 2026-04-24 20:07 | 55.62515 | 37.41086 | 2221 ft | 151 kts | 255° |
| 2026-04-24 20:07 | 55.62007 | 37.38807 | 1941 ft | 146 kts | 255° |
| 2026-04-24 20:07 | 55.61636 | 37.37159 | 1740 ft | 143 kts | 254° |
| 2026-04-24 20:07 | 55.61268 | 37.35527 | 1516 ft | 145 kts | 253° |
| 2026-04-24 20:08 | 55.60892 | 37.33857 | 1314 ft | 145 kts | 251° |
| 2026-04-24 20:08 | 55.60519 | 37.32205 | 1112 ft | 144 kts | 250° |
| 2026-04-24 20:08 | 55.60150 | 37.30564 | 920 ft | 143 kts | 249° |
| 2026-04-24 20:08 | 55.59784 | 37.28938 | 729 ft | 142 kts | 249° |
| 2026-04-24 20:09 | 55.59454 | 37.27464 | 689 ft | 109 kts | 248° |
| 2026-04-24 20:09 | 55.59232 | 37.26485 | 685 ft | 65 kts | 248° |
| 2026-04-24 20:09 | 55.59098 | 37.25895 | 689 ft | 45 kts | 249° |
| 2026-04-24 20:09 | 55.59026 | 37.25538 | 692 ft | 18 kts | 259° |
| 2026-04-24 20:10 | 55.59020 | 37.25336 | 692 ft | 14 kts | 270° |
| 2026-04-24 20:10 | 55.59030 | 37.25172 | 693 ft | 13 kts | 278° |
| 2026-04-24 20:10 | 55.59063 | 37.25055 | 690 ft | 10 kts | 333° |
| 2026-04-24 20:10 | 55.59129 | 37.25040 | 686 ft | 10 kts | 30° |
| 2026-04-24 20:11 | 55.59164 | 37.25155 | 689 ft | 14 kts | 69° |
| 2026-04-24 20:11 | 55.59209 | 37.25356 | 686 ft | 20 kts | 69° |
| 2026-04-24 20:11 | 55.59258 | 37.25579 | 692 ft | 19 kts | 69° |
| 2026-04-24 20:11 | 55.59305 | 37.25791 | 692 ft | 18 kts | 69° |
| 2026-04-24 20:12 | 55.59353 | 37.25994 | 687 ft | 18 kts | 67° |
| 2026-04-24 20:12 | 55.59396 | 37.26192 | 688 ft | 17 kts | 69° |
| 2026-04-24 20:12 | 55.59439 | 37.26380 | 690 ft | 17 kts | 68° |
| 2026-04-24 20:12 | 55.59491 | 37.26609 | 693 ft | 20 kts | 69° |
| 2026-04-24 20:13 | 55.59537 | 37.26800 | 686 ft | 15 kts | 59° |
| 2026-04-24 20:13 | 55.59607 | 37.26953 | 681 ft | 17 kts | 46° |
| 2026-04-24 20:13 | 55.59689 | 37.27106 | 684 ft | 17 kts | 46° |
| 2026-04-24 20:13 | 55.59768 | 37.27253 | 684 ft | 16 kts | 46° |
| 2026-04-24 20:14 | 55.59844 | 37.27394 | 688 ft | 16 kts | 46° |
| 2026-04-24 20:14 | 55.59917 | 37.27527 | 692 ft | 14 kts | 46° |
| 2026-04-24 20:14 | 55.59971 | 37.27658 | 693 ft | 12 kts | 47° |
| 2026-04-24 20:14 | 55.60005 | 37.27773 | 693 ft | 11 kts | 104° |
| 2026-04-24 20:15 | 55.59989 | 37.27875 | 693 ft | 7 kts | 68° |
| 2026-04-24 20:15 | 55.60025 | 37.27914 | 692 ft | 6 kts | 24° |
| 2026-04-24 20:15 | 55.60040 | 37.27926 | 693 ft | 0 kts | 24° |